createdAt,value
2022-10-23T00:00:27.505Z,85.77
2022-10-23T00:05:29.601Z,85.42
2022-10-23T00:10:31.608Z,85.11
2022-10-23T00:15:35.849Z,84.97
2022-10-23T00:20:37.687Z,84.92
2022-10-23T00:25:39.599Z,84.93
2022-10-23T00:30:41.391Z,84.80
2022-10-23T00:35:46.215Z,84.68
2022-10-23T00:45:56.697Z,84.62
2022-10-23T00:50:58.657Z,84.67
2022-10-23T00:56:00.692Z,84.74
2022-10-23T01:01:03.317Z,84.77
2022-10-23T01:06:16.708Z,84.77
2022-10-23T01:11:34.409Z,84.71
2022-10-23T01:17:10.597Z,84.66
2022-10-23T01:22:38.333Z,84.61
2022-10-23T01:27:49.331Z,84.58
2022-10-23T01:32:57.711Z,84.79
2022-10-23T01:38:23.893Z,85.02
2022-10-23T01:43:42.179Z,85.01
2022-10-23T01:48:52.720Z,85.00
2022-10-23T01:53:59.632Z,85.20
2022-10-23T01:59:06.466Z,85.44
2022-10-23T02:04:16.871Z,85.65
2022-10-23T02:09:19.070Z,85.81
2022-10-23T02:14:39.771Z,85.81
2022-10-23T02:20:02.143Z,85.75
2022-10-23T02:25:13.581Z,85.68
2022-10-23T02:30:18.904Z,85.58
2022-10-23T02:35:26.558Z,85.40
2022-10-23T02:40:43.102Z,85.34
2022-10-23T02:46:05.742Z,85.32
2022-10-23T02:51:27.673Z,85.35
2022-10-23T02:56:53.570Z,85.52
2022-10-23T03:02:03.955Z,85.68
2022-10-23T03:07:10.554Z,85.79
2022-10-23T03:12:12.393Z,85.92
2022-10-23T03:17:14.344Z,86.02
2022-10-23T03:22:16.702Z,86.12
2022-10-23T03:27:18.866Z,86.19
2022-10-23T03:32:20.979Z,86.20
2022-10-23T03:37:23.171Z,86.18
2022-10-23T03:42:25.539Z,86.15
2022-10-23T03:47:27.607Z,86.08
2022-10-23T03:52:29.743Z,86.00
2022-10-23T03:57:32.002Z,85.94
2022-10-23T04:02:34.305Z,85.89
2022-10-23T04:07:36.617Z,85.92
2022-10-23T04:12:38.797Z,85.87
2022-10-23T04:17:41.271Z,85.95
2022-10-23T04:22:43.299Z,85.87
2022-10-23T04:27:46.176Z,85.92
2022-10-23T04:32:51.704Z,86.10
2022-10-23T04:37:53.538Z,86.14
2022-10-23T04:42:55.748Z,86.14
2022-10-23T04:47:57.830Z,86.14
2022-10-23T04:53:00.971Z,86.22
2022-10-23T04:58:21.810Z,86.41
2022-10-23T05:03:26.409Z,86.53
2022-10-23T05:08:29.302Z,86.66
2022-10-23T05:13:49.829Z,86.87
2022-10-23T05:18:51.857Z,87.03
2022-10-23T05:23:55.534Z,87.11
2022-10-23T05:28:57.481Z,87.11
2022-10-23T05:34:00.798Z,87.12
2022-10-23T05:39:05.076Z,87.19
2022-10-23T05:44:07.294Z,87.21
2022-10-23T05:49:37.621Z,87.23
2022-10-23T05:55:06.706Z,87.26
2022-10-23T06:00:34.662Z,87.30
2022-10-23T06:05:52.219Z,87.35
2022-10-23T06:11:04.719Z,87.33
2022-10-23T06:16:11.777Z,87.35
2022-10-23T06:21:15.253Z,87.21
2022-10-23T06:26:19.490Z,87.19
2022-10-23T06:31:47.656Z,87.18
2022-10-23T06:36:49.820Z,87.17
2022-10-23T06:42:12.841Z,87.10
2022-10-23T06:47:44.441Z,86.89
2022-10-23T06:53:09.780Z,86.71
2022-10-23T06:58:13.217Z,86.52
2022-10-23T07:03:28.978Z,86.40
2022-10-23T07:08:44.290Z,86.21
2022-10-23T07:14:10.639Z,85.76
2022-10-23T07:19:12.654Z,85.34
2022-10-23T07:24:31.590Z,85.11
2022-10-23T07:29:34.405Z,84.75
2022-10-23T07:34:38.425Z,84.25
2022-10-23T07:39:51.328Z,83.49
2022-10-23T07:44:53.380Z,82.78
2022-10-23T07:49:56.394Z,82.43
2022-10-23T07:54:58.639Z,82.41
2022-10-23T08:00:06.198Z,82.24
2022-10-23T08:05:21.787Z,81.74
2022-10-23T08:10:30.789Z,81.44
2022-10-23T08:15:54.373Z,80.90
2022-10-23T08:21:24.178Z,80.48
2022-10-23T08:26:29.460Z,80.24
2022-10-23T08:31:31.804Z,79.88
2022-10-23T08:36:55.855Z,79.78
2022-10-23T08:41:58.926Z,79.65
2022-10-23T08:47:13.484Z,79.34
2022-10-23T08:53:00.288Z,78.64
2022-10-23T08:58:23.634Z,78.59
2022-10-23T09:03:27.150Z,78.71
2022-10-23T09:08:53.268Z,78.83
2022-10-23T09:14:27.759Z,78.97
2022-10-23T09:19:31.273Z,78.62
2022-10-23T09:24:33.733Z,78.18
2022-10-23T09:29:36.550Z,78.05
2022-10-23T09:35:05.318Z,77.62
2022-10-23T09:40:19.229Z,76.97
2022-10-23T09:45:30.756Z,76.90
2022-10-23T09:50:34.130Z,76.72
2022-10-23T09:55:36.171Z,76.33
2022-10-23T10:00:50.156Z,75.84
2022-10-23T10:06:20.930Z,76.10
2022-10-23T10:11:53.526Z,75.68
2022-10-23T10:17:04.685Z,75.03
2022-10-23T10:22:33.387Z,74.87
2022-10-23T10:28:04.423Z,74.02
2022-10-23T10:33:18.075Z,73.11
2022-10-23T10:38:31.985Z,73.15
2022-10-23T10:43:45.912Z,72.81
2022-10-23T10:48:54.048Z,71.15
2022-10-23T10:54:12.011Z,69.94
2022-10-23T10:59:26.793Z,69.51
2022-10-23T11:04:39.553Z,69.11
2022-10-23T11:09:59.287Z,68.37
2022-10-23T11:15:01.330Z,68.34
2022-10-23T11:20:09.003Z,68.48
2022-10-23T11:25:55.764Z,68.70
2022-10-23T11:31:17.774Z,69.16
2022-10-23T11:36:42.886Z,68.84
2022-10-23T11:41:51.345Z,68.33
2022-10-23T11:47:05.733Z,66.60
2022-10-23T11:52:22.934Z,64.71
2022-10-23T11:57:25.082Z,63.37
2022-10-23T12:02:38.408Z,62.59
2022-10-23T12:07:42.195Z,61.28
2022-10-23T12:12:58.566Z,60.44
2022-10-23T12:18:17.811Z,60.37
2022-10-23T12:23:48.084Z,60.34
2022-10-23T12:29:21.694Z,59.90
2022-10-23T12:34:56.853Z,60.69
2022-10-23T12:40:01.971Z,61.58
2022-10-23T12:45:20.668Z,61.92
2022-10-23T12:50:27.850Z,61.92
2022-10-23T12:55:45.705Z,62.06
2022-10-23T13:00:56.624Z,62.13
2022-10-23T13:06:04.448Z,62.61
2022-10-23T13:11:16.416Z,62.63
2022-10-23T13:16:22.303Z,62.72
2022-10-23T13:21:33.195Z,62.86
2022-10-23T13:26:49.095Z,62.81
2022-10-23T13:31:51.506Z,62.22
2022-10-23T13:37:21.177Z,62.19
2022-10-23T13:42:22.992Z,62.14
2022-10-23T13:47:24.990Z,62.19
2022-10-23T13:52:26.839Z,61.69
2022-10-23T13:57:28.811Z,61.52
2022-10-23T14:02:30.674Z,61.73
2022-10-23T14:07:32.693Z,61.94
2022-10-23T14:12:44.824Z,61.93
2022-10-23T14:17:47.621Z,62.05
2022-10-23T14:22:49.880Z,62.34
2022-10-23T14:27:52.021Z,62.68
2022-10-23T14:32:53.917Z,62.91
2022-10-23T14:37:55.651Z,63.05
2022-10-23T14:42:57.413Z,63.02
2022-10-23T14:48:01.230Z,63.29
2022-10-23T14:53:03.670Z,63.81
2022-10-23T14:58:20.293Z,64.20
2022-10-23T15:03:32.804Z,64.57
2022-10-23T15:08:43.813Z,64.85
2022-10-23T15:13:45.699Z,65.03
2022-10-23T15:18:48.016Z,65.41
2022-10-23T15:23:50.344Z,66.27
2022-10-23T15:28:57.131Z,66.54
2022-10-23T15:34:00.055Z,67.09
2022-10-23T15:39:03.122Z,67.62
2022-10-23T15:44:06.378Z,68.66
2022-10-23T15:49:08.722Z,68.96
2022-10-23T15:54:16.587Z,69.53
2022-10-23T15:59:20.993Z,69.60
2022-10-23T16:04:23.366Z,70.32
2022-10-23T16:09:25.515Z,71.16
2022-10-23T16:14:27.401Z,71.00
2022-10-23T16:19:29.551Z,71.95
2022-10-23T16:24:32.142Z,72.55
2022-10-23T16:29:34.173Z,73.01
2022-10-23T16:34:36.060Z,73.75
2022-10-23T16:39:38.916Z,74.56
2022-10-23T16:44:59.412Z,75.38
2022-10-23T16:50:01.331Z,75.81
2022-10-23T16:55:03.354Z,75.93
2022-10-23T17:00:09.593Z,76.24
2022-10-23T17:05:11.538Z,76.68
2022-10-23T17:10:13.726Z,77.13
2022-10-23T17:15:16.913Z,77.78
2022-10-23T17:20:18.980Z,78.72
2022-10-23T17:25:20.792Z,79.76
2022-10-23T17:30:24.405Z,79.77
2022-10-23T17:35:26.346Z,80.82
2022-10-23T17:40:41.737Z,81.03
2022-10-23T17:45:48.082Z,81.59
2022-10-23T17:50:49.866Z,82.27
2022-10-23T17:55:51.780Z,82.33
2022-10-23T18:00:53.702Z,81.94
2022-10-23T18:05:55.794Z,82.16
2022-10-23T18:10:57.829Z,82.44
2022-10-23T18:16:04.394Z,82.40
2022-10-23T18:21:07.491Z,82.57
2022-10-23T18:26:25.625Z,82.79
2022-10-23T18:31:30.460Z,82.84
2022-10-23T18:36:35.767Z,83.45
2022-10-23T18:41:40.729Z,84.01
2022-10-23T18:46:43.188Z,84.61
2022-10-23T18:51:45.501Z,84.80
2022-10-23T18:56:48.152Z,85.14
2022-10-23T19:02:05.508Z,85.20
2022-10-23T19:07:07.895Z,85.62
2022-10-23T19:12:10.930Z,85.73
2022-10-23T19:17:23.469Z,86.28
2022-10-23T19:22:25.600Z,86.64
2022-10-23T19:27:28.483Z,86.55
2022-10-23T19:32:30.613Z,86.64
2022-10-23T19:37:32.597Z,86.42
2022-10-23T19:42:38.269Z,86.12
2022-10-23T19:47:41.882Z,86.25
2022-10-23T19:52:44.170Z,86.60
2022-10-23T19:57:46.494Z,87.14
2022-10-23T20:02:50.243Z,86.94
2022-10-23T20:08:11.308Z,87.27
2022-10-23T20:13:19.706Z,87.51
2022-10-23T20:18:26.123Z,87.56
2022-10-23T20:23:28.303Z,87.75
2022-10-23T20:28:31.531Z,88.01
2022-10-23T20:33:33.419Z,88.07
2022-10-23T20:38:36.145Z,88.06
2022-10-23T20:43:38.474Z,87.77
2022-10-23T20:48:43.003Z,87.68
2022-10-23T20:53:45.650Z,87.89
2022-10-23T20:58:47.666Z,88.51
2022-10-23T21:03:51.858Z,88.63
2022-10-23T21:08:59.448Z,88.53
2022-10-23T21:14:03.974Z,88.12
2022-10-23T21:19:07.059Z,87.99
2022-10-23T21:24:13.366Z,87.90
2022-10-23T21:29:19.853Z,87.82
2022-10-23T21:34:28.539Z,88.11
2022-10-23T21:39:31.109Z,88.54
2022-10-23T21:44:33.087Z,88.85
2022-10-23T21:49:35.174Z,89.15
2022-10-23T21:54:38.047Z,89.15
2022-10-23T21:59:40.174Z,89.11
2022-10-23T22:04:42.467Z,89.02
2022-10-23T22:09:48.040Z,88.99
2022-10-23T22:14:50.171Z,88.94
2022-10-23T22:19:52.099Z,88.97
2022-10-23T22:24:54.068Z,89.04
2022-10-23T22:29:58.540Z,89.20
2022-10-23T22:35:00.638Z,89.30
2022-10-23T22:40:02.884Z,89.42
2022-10-23T22:45:05.418Z,89.53
2022-10-23T22:50:07.770Z,89.71
2022-10-23T22:55:10.704Z,89.77
2022-10-23T23:00:13.470Z,89.73
2022-10-23T23:05:15.346Z,89.74
2022-10-23T23:10:17.283Z,89.77
2022-10-23T23:15:19.231Z,89.90
2022-10-23T23:20:21.322Z,89.97
2022-10-23T23:25:43.248Z,89.75
2022-10-23T23:31:06.558Z,89.73
2022-10-23T23:36:11.150Z,89.73
2022-10-23T23:41:15.575Z,89.61
2022-10-23T23:46:20.847Z,89.51
2022-10-23T23:51:25.089Z,89.49
2022-10-23T23:56:28.081Z,89.42
